sensor_id;sensor_type;location;lat;lon;timestamp;P1;durP1;ratioP1;P2;durP2;ratioP2
46593;SDS011;35342;52.378;4.648;2023-02-28T00:01:30;3.78;;;2.28;;
46593;SDS011;35342;52.378;4.648;2023-02-28T00:03:56;3.08;;;1.58;;
46593;SDS011;35342;52.378;4.648;2023-02-28T00:06:22;5.50;;;1.88;;
46593;SDS011;35342;52.378;4.648;2023-02-28T00:08:49;6.85;;;2.30;;
46593;SDS011;35342;52.378;4.648;2023-02-28T00:11:15;4.30;;;2.13;;
46593;SDS011;35342;52.378;4.648;2023-02-28T00:13:42;2.85;;;1.90;;
46593;SDS011;35342;52.378;4.648;2023-02-28T00:16:12;9.77;;;1.92;;
46593;SDS011;35342;52.378;4.648;2023-02-28T00:18:42;4.35;;;1.77;;
46593;SDS011;35342;52.378;4.648;2023-02-28T00:21:08;5.40;;;2.00;;
46593;SDS011;35342;52.378;4.648;2023-02-28T00:23:34;2.97;;;1.65;;
46593;SDS011;35342;52.378;4.648;2023-02-28T00:26:00;6.78;;;2.40;;
46593;SDS011;35342;52.378;4.648;2023-02-28T00:28:26;6.30;;;1.85;;
46593;SDS011;35342;52.378;4.648;2023-02-28T00:30:52;2.10;;;1.40;;
46593;SDS011;35342;52.378;4.648;2023-02-28T00:33:18;3.47;;;1.70;;
46593;SDS011;35342;52.378;4.648;2023-02-28T00:35:44;4.28;;;2.22;;
46593;SDS011;35342;52.378;4.648;2023-02-28T00:38:14;6.03;;;1.75;;
46593;SDS011;35342;52.378;4.648;2023-02-28T00:40:40;6.38;;;1.60;;
46593;SDS011;35342;52.378;4.648;2023-02-28T00:43:05;3.13;;;2.83;;
46593;SDS011;35342;52.378;4.648;2023-02-28T00:45:31;6.10;;;2.00;;
46593;SDS011;35342;52.378;4.648;2023-02-28T00:47:57;8.05;;;2.05;;
46593;SDS011;35342;52.378;4.648;2023-02-28T00:50:23;2.90;;;1.40;;
46593;SDS011;35342;52.378;4.648;2023-02-28T00:52:49;5.95;;;2.28;;
46593;SDS011;35342;52.378;4.648;2023-02-28T00:55:15;2.25;;;1.95;;
46593;SDS011;35342;52.378;4.648;2023-02-28T00:57:41;5.40;;;2.13;;
46593;SDS011;35342;52.378;4.648;2023-02-28T01:00:07;3.17;;;2.13;;
46593;SDS011;35342;52.378;4.648;2023-02-28T01:02:33;4.60;;;1.75;;
46593;SDS011;35342;52.378;4.648;2023-02-28T01:04:59;4.80;;;2.13;;
46593;SDS011;35342;52.378;4.648;2023-02-28T01:07:25;5.93;;;2.20;;
46593;SDS011;35342;52.378;4.648;2023-02-28T01:09:51;8.40;;;2.83;;
46593;SDS011;35342;52.378;4.648;2023-02-28T01:12:17;3.22;;;1.77;;
46593;SDS011;35342;52.378;4.648;2023-02-28T01:14:43;7.07;;;2.50;;
46593;SDS011;35342;52.378;4.648;2023-02-28T01:17:08;4.55;;;2.13;;
46593;SDS011;35342;52.378;4.648;2023-02-28T01:19:34;3.25;;;2.00;;
46593;SDS011;35342;52.378;4.648;2023-02-28T01:22:04;2.45;;;1.65;;
46593;SDS011;35342;52.378;4.648;2023-02-28T01:24:31;3.60;;;2.10;;
46593;SDS011;35342;52.378;4.648;2023-02-28T01:26:58;6.20;;;1.77;;
46593;SDS011;35342;52.378;4.648;2023-02-28T01:29:24;5.78;;;1.85;;
46593;SDS011;35342;52.378;4.648;2023-02-28T01:31:50;2.63;;;1.58;;
46593;SDS011;35342;52.378;4.648;2023-02-28T01:34:16;8.05;;;1.90;;
46593;SDS011;35342;52.378;4.648;2023-02-28T01:36:44;6.00;;;2.65;;
46593;SDS011;35342;52.378;4.648;2023-02-28T01:39:10;8.52;;;2.00;;
46593;SDS011;35342;52.378;4.648;2023-02-28T01:41:38;3.28;;;1.90;;
46593;SDS011;35342;52.378;4.648;2023-02-28T01:44:05;6.65;;;1.90;;
46593;SDS011;35342;52.378;4.648;2023-02-28T01:47:09;3.78;;;1.80;;
46593;SDS011;35342;52.378;4.648;2023-02-28T01:49:35;4.82;;;2.28;;
46593;SDS011;35342;52.378;4.648;2023-02-28T01:52:02;8.32;;;2.20;;
46593;SDS011;35342;52.378;4.648;2023-02-28T01:54:29;7.05;;;2.30;;
46593;SDS011;35342;52.378;4.648;2023-02-28T01:57:00;6.50;;;1.75;;
46593;SDS011;35342;52.378;4.648;2023-02-28T01:59:33;5.38;;;2.05;;
46593;SDS011;35342;52.378;4.648;2023-02-28T02:02:11;9.13;;;2.45;;
46593;SDS011;35342;52.378;4.648;2023-02-28T02:04:45;5.55;;;2.15;;
46593;SDS011;35342;52.378;4.648;2023-02-28T02:07:26;4.35;;;1.83;;
46593;SDS011;35342;52.378;4.648;2023-02-28T02:10:06;3.05;;;1.80;;
46593;SDS011;35342;52.378;4.648;2023-02-28T02:21:24;7.38;;;2.28;;
46593;SDS011;35342;52.378;4.648;2023-02-28T02:27:08;6.53;;;2.15;;
46593;SDS011;35342;52.378;4.648;2023-02-28T02:35:14;4.63;;;2.78;;
46593;SDS011;35342;52.378;4.648;2023-02-28T02:43:54;3.30;;;2.83;;
46593;SDS011;35342;52.378;4.648;2023-02-28T02:46:37;3.05;;;1.90;;
46593;SDS011;35342;52.378;4.648;2023-02-28T02:49:08;3.65;;;1.77;;
46593;SDS011;35342;52.378;4.648;2023-02-28T02:51:42;6.25;;;2.78;;
46593;SDS011;35342;52.378;4.648;2023-02-28T02:54:13;5.93;;;2.28;;
46593;SDS011;35342;52.378;4.648;2023-02-28T02:57:03;6.72;;;2.47;;
46593;SDS011;35342;52.378;4.648;2023-02-28T02:59:38;7.57;;;3.13;;
46593;SDS011;35342;52.378;4.648;2023-02-28T03:02:07;6.10;;;2.58;;
46593;SDS011;35342;52.378;4.648;2023-02-28T03:04:45;4.13;;;2.10;;
46593;SDS011;35342;52.378;4.648;2023-02-28T03:07:17;3.50;;;2.10;;
46593;SDS011;35342;52.378;4.648;2023-02-28T03:09:53;1.75;;;1.63;;
46593;SDS011;35342;52.378;4.648;2023-02-28T03:12:20;3.35;;;2.00;;
46593;SDS011;35342;52.378;4.648;2023-02-28T03:15:17;5.97;;;2.30;;
46593;SDS011;35342;52.378;4.648;2023-02-28T03:23:14;3.00;;;1.98;;
46593;SDS011;35342;52.378;4.648;2023-02-28T03:33:51;6.05;;;2.50;;
46593;SDS011;35342;52.378;4.648;2023-02-28T03:36:35;4.15;;;1.83;;
46593;SDS011;35342;52.378;4.648;2023-02-28T03:39:11;5.32;;;2.45;;
46593;SDS011;35342;52.378;4.648;2023-02-28T03:42:01;6.32;;;2.35;;
46593;SDS011;35342;52.378;4.648;2023-02-28T03:44:36;4.28;;;1.88;;
46593;SDS011;35342;52.378;4.648;2023-02-28T03:47:17;5.15;;;2.15;;
46593;SDS011;35342;52.378;4.648;2023-02-28T03:49:58;5.22;;;2.17;;
46593;SDS011;35342;52.378;4.648;2023-02-28T03:52:42;4.50;;;2.28;;
46593;SDS011;35342;52.378;4.648;2023-02-28T03:55:18;5.13;;;2.00;;
46593;SDS011;35342;52.378;4.648;2023-02-28T04:00:59;4.43;;;2.42;;
46593;SDS011;35342;52.378;4.648;2023-02-28T04:03:36;4.65;;;2.10;;
46593;SDS011;35342;52.378;4.648;2023-02-28T04:06:04;6.80;;;2.45;;
46593;SDS011;35342;52.378;4.648;2023-02-28T04:08:33;2.92;;;2.70;;
46593;SDS011;35342;52.378;4.648;2023-02-28T04:11:01;4.93;;;2.42;;
46593;SDS011;35342;52.378;4.648;2023-02-28T04:13:39;6.15;;;2.30;;
46593;SDS011;35342;52.378;4.648;2023-02-28T04:16:08;6.75;;;2.55;;
46593;SDS011;35342;52.378;4.648;2023-02-28T04:18:38;5.07;;;2.72;;
46593;SDS011;35342;52.378;4.648;2023-02-28T04:21:05;6.45;;;2.45;;
46593;SDS011;35342;52.378;4.648;2023-02-28T04:23:32;5.03;;;2.85;;
46593;SDS011;35342;52.378;4.648;2023-02-28T04:25:58;4.13;;;2.50;;
46593;SDS011;35342;52.378;4.648;2023-02-28T04:28:24;7.90;;;2.70;;
46593;SDS011;35342;52.378;4.648;2023-02-28T04:30:56;5.90;;;2.42;;
46593;SDS011;35342;52.378;4.648;2023-02-28T04:33:28;5.78;;;2.90;;
46593;SDS011;35342;52.378;4.648;2023-02-28T04:36:03;4.10;;;2.33;;
46593;SDS011;35342;52.378;4.648;2023-02-28T04:38:33;4.65;;;2.70;;
46593;SDS011;35342;52.378;4.648;2023-02-28T04:41:02;4.65;;;2.70;;
46593;SDS011;35342;52.378;4.648;2023-02-28T04:43:28;6.68;;;2.55;;
46593;SDS011;35342;52.378;4.648;2023-02-28T04:45:56;5.45;;;4.22;;
46593;SDS011;35342;52.378;4.648;2023-02-28T04:48:26;4.30;;;2.90;;
46593;SDS011;35342;52.378;4.648;2023-02-28T04:50:53;6.25;;;3.50;;
46593;SDS011;35342;52.378;4.648;2023-02-28T04:53:20;6.43;;;3.58;;
46593;SDS011;35342;52.378;4.648;2023-02-28T04:55:46;6.60;;;3.00;;
46593;SDS011;35342;52.378;4.648;2023-02-28T04:58:13;5.82;;;3.05;;
46593;SDS011;35342;52.378;4.648;2023-02-28T05:00:39;9.05;;;3.97;;
46593;SDS011;35342;52.378;4.648;2023-02-28T05:03:05;4.78;;;2.47;;
46593;SDS011;35342;52.378;4.648;2023-02-28T05:05:31;5.15;;;3.47;;
46593;SDS011;35342;52.378;4.648;2023-02-28T05:07:57;8.02;;;3.72;;
46593;SDS011;35342;52.378;4.648;2023-02-28T05:10:23;6.03;;;3.75;;
46593;SDS011;35342;52.378;4.648;2023-02-28T05:12:49;9.35;;;3.58;;
46593;SDS011;35342;52.378;4.648;2023-02-28T05:15:15;7.00;;;3.88;;
46593;SDS011;35342;52.378;4.648;2023-02-28T05:17:42;6.50;;;3.30;;
46593;SDS011;35342;52.378;4.648;2023-02-28T05:20:08;7.65;;;3.92;;
46593;SDS011;35342;52.378;4.648;2023-02-28T05:22:41;6.00;;;3.80;;
46593;SDS011;35342;52.378;4.648;2023-02-28T05:25:12;11.07;;;3.25;;
46593;SDS011;35342;52.378;4.648;2023-02-28T05:27:59;5.65;;;3.35;;
46593;SDS011;35342;52.378;4.648;2023-02-28T05:30:25;5.93;;;3.63;;
46593;SDS011;35342;52.378;4.648;2023-02-28T05:32:51;5.95;;;3.40;;
46593;SDS011;35342;52.378;4.648;2023-02-28T05:35:17;9.40;;;3.30;;
46593;SDS011;35342;52.378;4.648;2023-02-28T05:37:43;5.20;;;2.83;;
46593;SDS011;35342;52.378;4.648;2023-02-28T05:40:09;6.60;;;3.63;;
46593;SDS011;35342;52.378;4.648;2023-02-28T05:42:36;5.78;;;3.33;;
46593;SDS011;35342;52.378;4.648;2023-02-28T05:45:03;6.90;;;3.28;;
46593;SDS011;35342;52.378;4.648;2023-02-28T05:47:31;5.18;;;4.05;;
46593;SDS011;35342;52.378;4.648;2023-02-28T05:49:58;5.65;;;3.10;;
46593;SDS011;35342;52.378;4.648;2023-02-28T05:52:23;6.20;;;3.50;;
46593;SDS011;35342;52.378;4.648;2023-02-28T05:54:49;10.32;;;3.40;;
46593;SDS011;35342;52.378;4.648;2023-02-28T05:57:15;12.05;;;4.00;;
46593;SDS011;35342;52.378;4.648;2023-02-28T05:59:41;8.98;;;3.53;;
46593;SDS011;35342;52.378;4.648;2023-02-28T06:02:10;11.48;;;3.88;;
46593;SDS011;35342;52.378;4.648;2023-02-28T06:04:39;9.55;;;3.83;;
46593;SDS011;35342;52.378;4.648;2023-02-28T06:07:05;8.50;;;3.53;;
46593;SDS011;35342;52.378;4.648;2023-02-28T06:09:32;5.82;;;3.13;;
46593;SDS011;35342;52.378;4.648;2023-02-28T06:11:58;6.10;;;3.50;;
46593;SDS011;35342;52.378;4.648;2023-02-28T06:14:25;4.88;;;3.22;;
46593;SDS011;35342;52.378;4.648;2023-02-28T06:16:51;6.53;;;3.47;;
46593;SDS011;35342;52.378;4.648;2023-02-28T06:19:17;5.63;;;3.13;;
46593;SDS011;35342;52.378;4.648;2023-02-28T06:21:43;4.18;;;3.03;;
46593;SDS011;35342;52.378;4.648;2023-02-28T06:24:09;4.55;;;3.55;;
46593;SDS011;35342;52.378;4.648;2023-02-28T06:26:35;4.78;;;2.80;;
46593;SDS011;35342;52.378;4.648;2023-02-28T06:29:01;5.18;;;3.63;;
46593;SDS011;35342;52.378;4.648;2023-02-28T06:31:28;4.85;;;3.38;;
46593;SDS011;35342;52.378;4.648;2023-02-28T06:33:54;8.60;;;3.20;;
46593;SDS011;35342;52.378;4.648;2023-02-28T06:36:21;4.53;;;3.20;;
46593;SDS011;35342;52.378;4.648;2023-02-28T06:38:47;6.32;;;3.70;;
46593;SDS011;35342;52.378;4.648;2023-02-28T06:41:16;6.90;;;3.67;;
46593;SDS011;35342;52.378;4.648;2023-02-28T06:43:42;8.77;;;3.92;;
46593;SDS011;35342;52.378;4.648;2023-02-28T06:46:11;6.63;;;3.90;;
46593;SDS011;35342;52.378;4.648;2023-02-28T06:48:39;5.53;;;3.42;;
46593;SDS011;35342;52.378;4.648;2023-02-28T06:51:07;7.28;;;4.43;;
46593;SDS011;35342;52.378;4.648;2023-02-28T06:53:36;7.35;;;4.43;;
46593;SDS011;35342;52.378;4.648;2023-02-28T06:56:04;7.50;;;4.80;;
46593;SDS011;35342;52.378;4.648;2023-02-28T06:58:31;9.00;;;4.28;;
46593;SDS011;35342;52.378;4.648;2023-02-28T07:00:58;13.38;;;5.07;;
46593;SDS011;35342;52.378;4.648;2023-02-28T07:03:24;6.53;;;4.78;;
46593;SDS011;35342;52.378;4.648;2023-02-28T07:05:49;7.05;;;5.15;;
46593;SDS011;35342;52.378;4.648;2023-02-28T07:08:15;6.35;;;4.95;;
46593;SDS011;35342;52.378;4.648;2023-02-28T07:10:41;7.93;;;5.32;;
46593;SDS011;35342;52.378;4.648;2023-02-28T07:13:08;12.98;;;6.53;;
46593;SDS011;35342;52.378;4.648;2023-02-28T07:15:38;11.93;;;6.88;;
46593;SDS011;35342;52.378;4.648;2023-02-28T07:18:04;10.27;;;6.63;;
46593;SDS011;35342;52.378;4.648;2023-02-28T07:20:30;9.25;;;5.82;;
46593;SDS011;35342;52.378;4.648;2023-02-28T07:22:56;11.38;;;5.90;;
46593;SDS011;35342;52.378;4.648;2023-02-28T07:25:22;11.15;;;6.13;;
46593;SDS011;35342;52.378;4.648;2023-02-28T07:27:50;10.18;;;7.25;;
46593;SDS011;35342;52.378;4.648;2023-02-28T07:30:16;13.55;;;7.15;;
46593;SDS011;35342;52.378;4.648;2023-02-28T07:32:42;10.63;;;7.20;;
46593;SDS011;35342;52.378;4.648;2023-02-28T07:35:08;14.85;;;7.38;;
46593;SDS011;35342;52.378;4.648;2023-02-28T07:37:34;9.30;;;7.35;;
46593;SDS011;35342;52.378;4.648;2023-02-28T07:40:03;12.77;;;6.60;;
46593;SDS011;35342;52.378;4.648;2023-02-28T07:42:35;7.95;;;6.05;;
46593;SDS011;35342;52.378;4.648;2023-02-28T07:45:01;10.30;;;6.88;;
46593;SDS011;35342;52.378;4.648;2023-02-28T07:47:28;8.38;;;6.15;;
46593;SDS011;35342;52.378;4.648;2023-02-28T07:49:55;7.60;;;5.47;;
46593;SDS011;35342;52.378;4.648;2023-02-28T07:52:21;9.38;;;6.63;;
46593;SDS011;35342;52.378;4.648;2023-02-28T07:54:48;8.98;;;5.30;;
46593;SDS011;35342;52.378;4.648;2023-02-28T07:57:15;5.72;;;4.65;;
46593;SDS011;35342;52.378;4.648;2023-02-28T07:59:41;9.48;;;6.15;;
46593;SDS011;35342;52.378;4.648;2023-02-28T08:02:14;5.75;;;5.07;;
46593;SDS011;35342;52.378;4.648;2023-02-28T08:04:43;5.53;;;4.00;;
46593;SDS011;35342;52.378;4.648;2023-02-28T08:07:11;5.47;;;3.65;;
46593;SDS011;35342;52.378;4.648;2023-02-28T08:09:39;7.50;;;4.40;;
46593;SDS011;35342;52.378;4.648;2023-02-28T08:12:10;6.82;;;3.72;;
46593;SDS011;35342;52.378;4.648;2023-02-28T08:14:37;6.38;;;3.70;;
46593;SDS011;35342;52.378;4.648;2023-02-28T08:17:03;4.35;;;3.13;;
46593;SDS011;35342;52.378;4.648;2023-02-28T08:19:30;4.20;;;3.70;;
46593;SDS011;35342;52.378;4.648;2023-02-28T08:21:56;5.80;;;3.95;;
46593;SDS011;35342;52.378;4.648;2023-02-28T08:24:23;4.32;;;3.70;;
46593;SDS011;35342;52.378;4.648;2023-02-28T08:26:49;4.45;;;3.78;;
46593;SDS011;35342;52.378;4.648;2023-02-28T08:29:15;5.15;;;4.10;;
46593;SDS011;35342;52.378;4.648;2023-02-28T08:31:41;6.40;;;3.83;;
46593;SDS011;35342;52.378;4.648;2023-02-28T08:34:08;6.10;;;3.85;;
46593;SDS011;35342;52.378;4.648;2023-02-28T08:36:36;6.78;;;3.58;;
46593;SDS011;35342;52.378;4.648;2023-02-28T08:39:03;6.63;;;4.03;;
46593;SDS011;35342;52.378;4.648;2023-02-28T08:41:30;4.70;;;3.92;;
46593;SDS011;35342;52.378;4.648;2023-02-28T08:43:56;7.13;;;4.68;;
46593;SDS011;35342;52.378;4.648;2023-02-28T08:46:23;6.10;;;3.60;;
46593;SDS011;35342;52.378;4.648;2023-02-28T08:48:52;5.45;;;4.57;;
46593;SDS011;35342;52.378;4.648;2023-02-28T08:51:20;8.50;;;4.38;;
46593;SDS011;35342;52.378;4.648;2023-02-28T08:53:51;5.30;;;4.35;;
46593;SDS011;35342;52.378;4.648;2023-02-28T08:56:23;6.18;;;4.13;;
46593;SDS011;35342;52.378;4.648;2023-02-28T08:58:49;5.25;;;4.53;;
46593;SDS011;35342;52.378;4.648;2023-02-28T09:03:47;6.65;;;3.90;;
46593;SDS011;35342;52.378;4.648;2023-02-28T09:06:15;6.13;;;3.50;;
46593;SDS011;35342;52.378;4.648;2023-02-28T09:08:43;5.82;;;4.18;;
46593;SDS011;35342;52.378;4.648;2023-02-28T09:11:09;4.13;;;3.72;;
46593;SDS011;35342;52.378;4.648;2023-02-28T09:13:36;7.38;;;4.20;;
46593;SDS011;35342;52.378;4.648;2023-02-28T09:16:03;4.82;;;3.63;;
46593;SDS011;35342;52.378;4.648;2023-02-28T09:18:33;7.03;;;4.40;;
46593;SDS011;35342;52.378;4.648;2023-02-28T09:21:11;7.50;;;5.03;;
46593;SDS011;35342;52.378;4.648;2023-02-28T09:23:43;8.35;;;5.28;;
46593;SDS011;35342;52.378;4.648;2023-02-28T09:26:18;6.22;;;4.53;;
46593;SDS011;35342;52.378;4.648;2023-02-28T09:28:47;5.75;;;4.50;;
46593;SDS011;35342;52.378;4.648;2023-02-28T09:31:21;7.65;;;4.63;;
46593;SDS011;35342;52.378;4.648;2023-02-28T09:33:51;10.32;;;4.72;;
46593;SDS011;35342;52.378;4.648;2023-02-28T09:36:19;6.35;;;4.40;;
46593;SDS011;35342;52.378;4.648;2023-02-28T09:38:47;6.35;;;5.70;;
46593;SDS011;35342;52.378;4.648;2023-02-28T09:41:17;5.93;;;4.43;;
46593;SDS011;35342;52.378;4.648;2023-02-28T09:46:27;6.05;;;4.28;;
46593;SDS011;35342;52.378;4.648;2023-02-28T09:49:06;7.72;;;5.18;;
46593;SDS011;35342;52.378;4.648;2023-02-28T09:51:46;7.53;;;4.70;;
46593;SDS011;35342;52.378;4.648;2023-02-28T09:54:28;8.23;;;4.60;;
46593;SDS011;35342;52.378;4.648;2023-02-28T09:57:08;7.43;;;5.13;;
46593;SDS011;35342;52.378;4.648;2023-02-28T10:00:15;8.52;;;4.00;;
46593;SDS011;35342;52.378;4.648;2023-02-28T10:09:38;6.72;;;5.03;;
46593;SDS011;35342;52.378;4.648;2023-02-28T10:11:42;7.35;;;5.40;;
46593;SDS011;35342;52.378;4.648;2023-02-28T10:14:15;7.72;;;4.78;;
46593;SDS011;35342;52.378;4.648;2023-02-28T10:19:40;9.75;;;5.10;;
46593;SDS011;35342;52.378;4.648;2023-02-28T10:22:32;8.25;;;5.07;;
46593;SDS011;35342;52.378;4.648;2023-02-28T10:25:25;6.18;;;4.50;;
46593;SDS011;35342;52.378;4.648;2023-02-28T10:28:10;6.70;;;4.18;;
46593;SDS011;35342;52.378;4.648;2023-02-28T10:30:40;5.82;;;3.90;;
46593;SDS011;35342;52.378;4.648;2023-02-28T10:33:16;6.72;;;5.03;;
46593;SDS011;35342;52.378;4.648;2023-02-28T10:35:50;8.05;;;4.07;;
46593;SDS011;35342;52.378;4.648;2023-02-28T10:38:19;7.88;;;3.80;;
46593;SDS011;35342;52.378;4.648;2023-02-28T10:44:14;5.40;;;3.42;;
46593;SDS011;35342;52.378;4.648;2023-02-28T10:46:46;6.38;;;3.20;;
46593;SDS011;35342;52.378;4.648;2023-02-28T10:49:22;3.92;;;2.47;;
46593;SDS011;35342;52.378;4.648;2023-02-28T10:51:58;3.25;;;2.50;;
46593;SDS011;35342;52.378;4.648;2023-02-28T10:54:30;5.13;;;1.98;;
46593;SDS011;35342;52.378;4.648;2023-02-28T10:57:20;3.53;;;2.42;;
46593;SDS011;35342;52.378;4.648;2023-02-28T11:00:05;5.05;;;2.50;;
46593;SDS011;35342;52.378;4.648;2023-02-28T11:02:44;4.40;;;2.50;;
46593;SDS011;35342;52.378;4.648;2023-02-28T11:08:14;5.95;;;1.88;;
46593;SDS011;35342;52.378;4.648;2023-02-28T11:10:46;3.60;;;2.05;;
46593;SDS011;35342;52.378;4.648;2023-02-28T11:13:19;13.18;;;2.38;;
46593;SDS011;35342;52.378;4.648;2023-02-28T11:15:51;3.85;;;1.98;;
46593;SDS011;35342;52.378;4.648;2023-02-28T11:21:01;8.15;;;2.50;;
46593;SDS011;35342;52.378;4.648;2023-02-28T11:23:29;2.53;;;1.95;;
46593;SDS011;35342;52.378;4.648;2023-02-28T11:26:00;4.57;;;1.95;;
46593;SDS011;35342;52.378;4.648;2023-02-28T11:28:29;1.85;;;1.55;;
46593;SDS011;35342;52.378;4.648;2023-02-28T11:31:00;2.75;;;1.90;;
46593;SDS011;35342;52.378;4.648;2023-02-28T11:33:30;4.13;;;1.60;;
46593;SDS011;35342;52.378;4.648;2023-02-28T11:36:10;2.05;;;1.38;;
46593;SDS011;35342;52.378;4.648;2023-02-28T11:38:46;3.53;;;1.60;;
46593;SDS011;35342;52.378;4.648;2023-02-28T11:41:24;1.98;;;1.63;;
46593;SDS011;35342;52.378;4.648;2023-02-28T11:52:56;2.30;;;1.60;;
46593;SDS011;35342;52.378;4.648;2023-02-28T11:55:54;4.55;;;1.92;;
46593;SDS011;35342;52.378;4.648;2023-02-28T12:07:02;1.67;;;1.27;;
46593;SDS011;35342;52.378;4.648;2023-02-28T12:12:29;2.13;;;1.35;;
46593;SDS011;35342;52.378;4.648;2023-02-28T12:29:14;1.77;;;1.63;;
46593;SDS011;35342;52.378;4.648;2023-02-28T12:34:47;2.33;;;1.52;;
46593;SDS011;35342;52.378;4.648;2023-02-28T12:40:20;1.20;;;1.10;;
46593;SDS011;35342;52.378;4.648;2023-02-28T12:42:52;1.75;;;1.45;;
46593;SDS011;35342;52.378;4.648;2023-02-28T12:45:36;2.28;;;1.60;;
46593;SDS011;35342;52.378;4.648;2023-02-28T12:48:22;1.70;;;1.30;;
46593;SDS011;35342;52.378;4.648;2023-02-28T12:51:04;1.40;;;1.25;;
46593;SDS011;35342;52.378;4.648;2023-02-28T12:59:54;3.63;;;1.60;;
46593;SDS011;35342;52.378;4.648;2023-02-28T13:11:29;2.28;;;1.63;;
46593;SDS011;35342;52.378;4.648;2023-02-28T13:13:57;3.35;;;1.80;;
46593;SDS011;35342;52.378;4.648;2023-02-28T13:16:27;2.53;;;1.65;;
46593;SDS011;35342;52.378;4.648;2023-02-28T13:19:07;2.63;;;2.42;;
46593;SDS011;35342;52.378;4.648;2023-02-28T13:21:41;2.25;;;1.70;;
46593;SDS011;35342;52.378;4.648;2023-02-28T13:24:09;3.70;;;1.98;;
46593;SDS011;35342;52.378;4.648;2023-02-28T13:29:04;2.63;;;2.08;;
46593;SDS011;35342;52.378;4.648;2023-02-28T13:34:33;3.08;;;2.20;;
46593;SDS011;35342;52.378;4.648;2023-02-28T13:50:37;3.08;;;2.00;;
46593;SDS011;35342;52.378;4.648;2023-02-28T14:07:24;6.20;;;2.20;;
46593;SDS011;35342;52.378;4.648;2023-02-28T14:10:04;2.45;;;2.25;;
46593;SDS011;35342;52.378;4.648;2023-02-28T14:21:10;2.38;;;2.10;;
46593;SDS011;35342;52.378;4.648;2023-02-28T14:36:37;5.40;;;2.75;;
46593;SDS011;35342;52.378;4.648;2023-02-28T14:41:44;2.17;;;1.85;;
46593;SDS011;35342;52.378;4.648;2023-02-28T14:44:16;5.43;;;1.88;;
46593;SDS011;35342;52.378;4.648;2023-02-28T14:46:52;2.72;;;1.90;;
46593;SDS011;35342;52.378;4.648;2023-02-28T14:49:32;3.47;;;2.20;;
46593;SDS011;35342;52.378;4.648;2023-02-28T14:52:20;4.40;;;2.13;;
46593;SDS011;35342;52.378;4.648;2023-02-28T14:54:55;2.25;;;1.85;;
46593;SDS011;35342;52.378;4.648;2023-02-28T14:57:24;2.83;;;2.20;;
46593;SDS011;35342;52.378;4.648;2023-02-28T15:00:00;3.63;;;2.28;;
46593;SDS011;35342;52.378;4.648;2023-02-28T15:02:30;2.13;;;1.92;;
46593;SDS011;35342;52.378;4.648;2023-02-28T15:05:01;2.42;;;1.98;;
46593;SDS011;35342;52.378;4.648;2023-02-28T15:07:38;3.78;;;2.10;;
46593;SDS011;35342;52.378;4.648;2023-02-28T15:10:09;1.85;;;1.50;;
46593;SDS011;35342;52.378;4.648;2023-02-28T15:12:53;2.65;;;1.80;;
46593;SDS011;35342;52.378;4.648;2023-02-28T15:18:29;7.45;;;2.53;;
46593;SDS011;35342;52.378;4.648;2023-02-28T15:21:09;4.38;;;2.20;;
46593;SDS011;35342;52.378;4.648;2023-02-28T15:23:43;3.42;;;2.30;;
46593;SDS011;35342;52.378;4.648;2023-02-28T15:26:15;3.22;;;1.85;;
46593;SDS011;35342;52.378;4.648;2023-02-28T15:28:44;2.38;;;1.80;;
46593;SDS011;35342;52.378;4.648;2023-02-28T15:31:21;1.98;;;1.45;;
46593;SDS011;35342;52.378;4.648;2023-02-28T15:33:54;3.85;;;2.10;;
46593;SDS011;35342;52.378;4.648;2023-02-28T15:36:24;2.00;;;1.80;;
46593;SDS011;35342;52.378;4.648;2023-02-28T15:38:54;2.03;;;1.83;;
46593;SDS011;35342;52.378;4.648;2023-02-28T15:41:24;2.85;;;2.13;;
46593;SDS011;35342;52.378;4.648;2023-02-28T15:44:16;5.78;;;2.15;;
46593;SDS011;35342;52.378;4.648;2023-02-28T15:49:32;2.10;;;1.77;;
46593;SDS011;35342;52.378;4.648;2023-02-28T15:52:11;7.32;;;2.22;;
46593;SDS011;35342;52.378;4.648;2023-02-28T15:55:21;2.00;;;1.63;;
46593;SDS011;35342;52.378;4.648;2023-02-28T15:57:53;1.90;;;1.42;;
46593;SDS011;35342;52.378;4.648;2023-02-28T16:00:26;3.22;;;1.95;;
46593;SDS011;35342;52.378;4.648;2023-02-28T16:02:53;2.97;;;2.10;;
46593;SDS011;35342;52.378;4.648;2023-02-28T16:05:27;1.65;;;1.55;;
46593;SDS011;35342;52.378;4.648;2023-02-28T16:07:57;2.90;;;1.80;;
46593;SDS011;35342;52.378;4.648;2023-02-28T16:10:36;5.80;;;2.35;;
46593;SDS011;35342;52.378;4.648;2023-02-28T16:13:02;2.78;;;1.80;;
46593;SDS011;35342;52.378;4.648;2023-02-28T16:15:29;3.58;;;2.47;;
46593;SDS011;35342;52.378;4.648;2023-02-28T16:18:07;1.52;;;1.42;;
46593;SDS011;35342;52.378;4.648;2023-02-28T16:20:37;3.03;;;2.55;;
46593;SDS011;35342;52.378;4.648;2023-02-28T16:23:03;5.07;;;2.83;;
46593;SDS011;35342;52.378;4.648;2023-02-28T16:25:37;2.45;;;2.25;;
46593;SDS011;35342;52.378;4.648;2023-02-28T16:28:23;3.05;;;1.90;;
46593;SDS011;35342;52.378;4.648;2023-02-28T16:30:57;7.35;;;2.35;;
46593;SDS011;35342;52.378;4.648;2023-02-28T16:33:27;4.05;;;2.53;;
46593;SDS011;35342;52.378;4.648;2023-02-28T16:35:54;4.03;;;1.85;;
46593;SDS011;35342;52.378;4.648;2023-02-28T16:38:20;2.95;;;2.00;;
46593;SDS011;35342;52.378;4.648;2023-02-28T16:40:48;5.25;;;1.50;;
46593;SDS011;35342;52.378;4.648;2023-02-28T16:43:17;1.95;;;1.70;;
46593;SDS011;35342;52.378;4.648;2023-02-28T16:45:48;2.75;;;1.80;;
46593;SDS011;35342;52.378;4.648;2023-02-28T16:48:19;2.38;;;2.17;;
46593;SDS011;35342;52.378;4.648;2023-02-28T16:50:45;4.43;;;2.40;;
46593;SDS011;35342;52.378;4.648;2023-02-28T16:53:10;3.42;;;2.50;;
46593;SDS011;35342;52.378;4.648;2023-02-28T16:55:36;6.70;;;2.45;;
46593;SDS011;35342;52.378;4.648;2023-02-28T16:58:02;2.10;;;1.90;;
46593;SDS011;35342;52.378;4.648;2023-02-28T17:00:29;4.00;;;2.20;;
46593;SDS011;35342;52.378;4.648;2023-02-28T17:02:57;2.33;;;1.88;;
46593;SDS011;35342;52.378;4.648;2023-02-28T17:05:27;4.25;;;2.60;;
46593;SDS011;35342;52.378;4.648;2023-02-28T17:10:28;4.15;;;2.20;;
46593;SDS011;35342;52.378;4.648;2023-02-28T17:12:54;4.25;;;2.65;;
46593;SDS011;35342;52.378;4.648;2023-02-28T17:15:20;3.47;;;2.30;;
46593;SDS011;35342;52.378;4.648;2023-02-28T17:17:47;4.18;;;2.33;;
46593;SDS011;35342;52.378;4.648;2023-02-28T17:20:20;4.72;;;2.67;;
46593;SDS011;35342;52.378;4.648;2023-02-28T17:22:47;7.63;;;2.53;;
46593;SDS011;35342;52.378;4.648;2023-02-28T17:25:15;4.20;;;2.50;;
46593;SDS011;35342;52.378;4.648;2023-02-28T17:27:41;5.63;;;2.40;;
46593;SDS011;35342;52.378;4.648;2023-02-28T17:32:44;4.47;;;2.25;;
46593;SDS011;35342;52.378;4.648;2023-02-28T17:35:10;2.85;;;2.28;;
46593;SDS011;35342;52.378;4.648;2023-02-28T17:37:36;4.00;;;2.20;;
46593;SDS011;35342;52.378;4.648;2023-02-28T17:40:02;3.05;;;2.13;;
46593;SDS011;35342;52.378;4.648;2023-02-28T17:42:29;2.90;;;2.50;;
46593;SDS011;35342;52.378;4.648;2023-02-28T17:44:55;3.47;;;2.60;;
46593;SDS011;35342;52.378;4.648;2023-02-28T17:47:20;6.88;;;2.75;;
46593;SDS011;35342;52.378;4.648;2023-02-28T17:49:46;4.82;;;2.80;;
46593;SDS011;35342;52.378;4.648;2023-02-28T17:52:12;5.90;;;2.65;;
46593;SDS011;35342;52.378;4.648;2023-02-28T17:54:38;2.97;;;2.42;;
46593;SDS011;35342;52.378;4.648;2023-02-28T17:57:04;6.03;;;2.97;;
46593;SDS011;35342;52.378;4.648;2023-02-28T17:59:30;4.18;;;2.30;;
46593;SDS011;35342;52.378;4.648;2023-02-28T18:02:01;3.35;;;2.75;;
46593;SDS011;35342;52.378;4.648;2023-02-28T18:04:28;3.92;;;2.53;;
46593;SDS011;35342;52.378;4.648;2023-02-28T18:06:54;4.18;;;3.22;;
46593;SDS011;35342;52.378;4.648;2023-02-28T18:09:25;4.65;;;2.75;;
46593;SDS011;35342;52.378;4.648;2023-02-28T18:11:52;6.47;;;3.28;;
46593;SDS011;35342;52.378;4.648;2023-02-28T18:14:21;6.43;;;3.08;;
46593;SDS011;35342;52.378;4.648;2023-02-28T18:16:50;4.47;;;3.63;;